Terminal Aerodrome Forecast
Issued by NWS

Current Version | Previous Version | Text Only | Print | Product List | Glossary On
Versions: 1 2 3 4 5 6 7 8 9 10 11 12 13 14 15 16 17 18 19 20 21 22 23 24 25
000 FTUS41 KBOX 220520 TAFHYA TAF KHYA 220520Z 2206/2306 02007KT P6SM SCT025 BKN040 FM221200 03007KT P6SM BKN020 FM221700 09005KT P6SM OVC015 FM222200 10009KT P6SM BKN015=

USA.gov is the U.S. government's official web portal to all federal, state and local government web resources and services.